UAE9954 VHHH-VTBS
Flight info
| Callsign | UAE9954 |
|---|---|
| Flight time | 2h 41m |
| Altitude | 38000 |
| Route | PECAN V10 SIKOU/K0876S1100 A202 SAMAS/K0882S1160 A202 ASSAD/K0882F380 A202 VILAO/N0475F380 A202 RAMEI W42 PAKRI Y13 RUKSA EASTE1C |
| Aircraft | B77L/H-SDE1E2E3FGHIJ2J3J4J5M1RWXY/LB1D1 |
Departure
| Time | 2026-04-30 09:16 |
|---|---|
| Airport | Hong Kong International Airport (VHHH) |
Arrival
| Time | 2026-04-30 11:57 |
|---|---|
| Airport | Suvarnabhumi Airport (VTBS) |
| Time | Latitude | Longitude | Altitude | Speed | Heading |
|---|---|---|---|---|---|
| 2026-04-30 08:36 | 22.29831 | 113.91685 | 42 ft | 0 kts | 238° |
| 2026-04-30 09:03 | 22.29836 | 113.91692 | 42 ft | 2 kts | 238° |
| 2026-04-30 09:03 | 22.29844 | 113.91706 | 42 ft | 2 kts | 238° |
| 2026-04-30 09:03 | 22.29852 | 113.91720 | 42 ft | 2 kts | 238° |
| 2026-04-30 09:04 | 22.29860 | 113.91734 | 42 ft | 2 kts | 244° |
| 2026-04-30 09:04 | 22.29864 | 113.91749 | 42 ft | 2 kts | 270° |
| 2026-04-30 09:04 | 22.29862 | 113.91765 | 42 ft | 2 kts | 290° |
| 2026-04-30 09:04 | 22.29855 | 113.91779 | 42 ft | 2 kts | 311° |
| 2026-04-30 09:05 | 22.29844 | 113.91790 | 42 ft | 2 kts | 331° |
| 2026-04-30 09:05 | 22.29830 | 113.91795 | 42 ft | 2 kts | 343° |
| 2026-04-30 09:05 | 22.29815 | 113.91801 | 42 ft | 2 kts | 341° |
| 2026-04-30 09:05 | 22.29801 | 113.91806 | 42 ft | 2 kts | 340° |
| 2026-04-30 09:06 | 22.29791 | 113.91810 | 42 ft | 0 kts | 340° |
| 2026-04-30 09:08 | 22.29801 | 113.91806 | 42 ft | 3 kts | 340° |
| 2026-04-30 09:09 | 22.29838 | 113.91787 | 42 ft | 7 kts | 329° |
| 2026-04-30 09:09 | 22.29888 | 113.91756 | 42 ft | 8 kts | 335° |
| 2026-04-30 09:09 | 22.29941 | 113.91735 | 42 ft | 7 kts | 340° |
| 2026-04-30 09:09 | 22.29993 | 113.91715 | 42 ft | 7 kts | 340° |
| 2026-04-30 09:10 | 22.30034 | 113.91683 | 42 ft | 7 kts | 292° |
| 2026-04-30 09:10 | 22.30026 | 113.91625 | 42 ft | 9 kts | 253° |
| 2026-04-30 09:10 | 22.30003 | 113.91546 | 42 ft | 11 kts | 252° |
| 2026-04-30 09:10 | 22.29977 | 113.91466 | 42 ft | 10 kts | 250° |
| 2026-04-30 09:11 | 22.29951 | 113.91391 | 42 ft | 11 kts | 251° |
| 2026-04-30 09:11 | 22.29924 | 113.91304 | 42 ft | 13 kts | 251° |
| 2026-04-30 09:11 | 22.29892 | 113.91202 | 42 ft | 15 kts | 251° |
| 2026-04-30 09:11 | 22.29856 | 113.91086 | 42 ft | 17 kts | 251° |
| 2026-04-30 09:12 | 22.29813 | 113.90958 | 42 ft | 18 kts | 250° |
| 2026-04-30 09:12 | 22.29769 | 113.90820 | 42 ft | 20 kts | 251° |
| 2026-04-30 09:12 | 22.29723 | 113.90672 | 42 ft | 21 kts | 252° |
| 2026-04-30 09:12 | 22.29672 | 113.90517 | 42 ft | 22 kts | 250° |
| 2026-04-30 09:13 | 22.29619 | 113.90353 | 42 ft | 23 kts | 251° |
| 2026-04-30 09:13 | 22.29565 | 113.90182 | 42 ft | 23 kts | 251° |
| 2026-04-30 09:13 | 22.29512 | 113.90025 | 42 ft | 19 kts | 248° |
| 2026-04-30 09:13 | 22.29489 | 113.89938 | 42 ft | 10 kts | 267° |
| 2026-04-30 09:14 | 22.29507 | 113.89868 | 42 ft | 9 kts | 308° |
| 2026-04-30 09:14 | 22.29561 | 113.89835 | 42 ft | 9 kts | 340° |
| 2026-04-30 09:14 | 22.29624 | 113.89831 | 42 ft | 9 kts | 41° |
| 2026-04-30 09:14 | 22.29655 | 113.89904 | 42 ft | 11 kts | 72° |
| 2026-04-30 09:15 | 22.29708 | 113.90077 | 42 ft | 54 kts | 71° |
| 2026-04-30 09:15 | 22.29915 | 113.90720 | 42 ft | 125 kts | 71° |
| 2026-04-30 09:15 | 22.30274 | 113.91821 | 49 ft | 183 kts | 67° |
| 2026-04-30 09:15 | 22.30709 | 113.93169 | 626 ft | 191 kts | 69° |
| 2026-04-30 09:16 | 22.31146 | 113.94503 | 1458 ft | 189 kts | 69° |
| 2026-04-30 09:16 | 22.31598 | 113.95873 | 1969 ft | 201 kts | 69° |
| 2026-04-30 09:16 | 22.32082 | 113.97374 | 2322 ft | 224 kts | 69° |
| 2026-04-30 09:16 | 22.32623 | 113.99010 | 2856 ft | 238 kts | 69° |
| 2026-04-30 09:17 | 22.33176 | 114.00722 | 3399 ft | 252 kts | 70° |
| 2026-04-30 09:17 | 22.33744 | 114.02604 | 3864 ft | 271 kts | 75° |
| 2026-04-30 09:17 | 22.33873 | 114.04608 | 4718 ft | 272 kts | 98° |
| 2026-04-30 09:17 | 22.33210 | 114.06517 | 5402 ft | 279 kts | 124° |
| 2026-04-30 09:18 | 22.31826 | 114.07995 | 6049 ft | 284 kts | 149° |
| 2026-04-30 09:18 | 22.29999 | 114.08792 | 6736 ft | 285 kts | 171° |
| 2026-04-30 09:18 | 22.28015 | 114.08903 | 7421 ft | 285 kts | 186° |
| 2026-04-30 09:18 | 22.26046 | 114.08780 | 8138 ft | 287 kts | 186° |
| 2026-04-30 09:19 | 22.24022 | 114.08704 | 8830 ft | 290 kts | 185° |
| 2026-04-30 09:19 | 22.22009 | 114.08666 | 9508 ft | 293 kts | 185° |
| 2026-04-30 09:19 | 22.19957 | 114.08644 | 10169 ft | 296 kts | 184° |
| 2026-04-30 09:19 | 22.17826 | 114.08858 | 10500 ft | 316 kts | 172° |
| 2026-04-30 09:20 | 22.15660 | 114.09576 | 10802 ft | 338 kts | 160° |
| 2026-04-30 09:20 | 22.13983 | 114.10549 | 11062 ft | 354 kts | 149° |
| 2026-04-30 09:20 | 22.12044 | 114.12328 | 11412 ft | 374 kts | 134° |
| 2026-04-30 09:20 | 22.10491 | 114.14674 | 11750 ft | 392 kts | 120° |
| 2026-04-30 09:21 | 22.09387 | 114.17401 | 12149 ft | 406 kts | 108° |
| 2026-04-30 09:21 | 22.08642 | 114.20352 | 12773 ft | 413 kts | 105° |
| 2026-04-30 09:21 | 22.07768 | 114.23298 | 13497 ft | 417 kts | 112° |
| 2026-04-30 09:21 | 22.06440 | 114.26104 | 14234 ft | 420 kts | 124° |
| 2026-04-30 09:22 | 22.04668 | 114.28602 | 15007 ft | 422 kts | 135° |
| 2026-04-30 09:22 | 22.02469 | 114.30745 | 15826 ft | 422 kts | 146° |
| 2026-04-30 09:22 | 21.99966 | 114.32412 | 16623 ft | 421 kts | 157° |
| 2026-04-30 09:22 | 21.97245 | 114.33564 | 17359 ft | 421 kts | 167° |
| 2026-04-30 09:23 | 21.94400 | 114.34166 | 18108 ft | 419 kts | 178° |
| 2026-04-30 09:23 | 21.91500 | 114.34217 | 18805 ft | 419 kts | 188° |
| 2026-04-30 09:23 | 21.88589 | 114.33702 | 19461 ft | 419 kts | 198° |
| 2026-04-30 09:23 | 21.85864 | 114.32650 | 20141 ft | 418 kts | 208° |
| 2026-04-30 09:24 | 21.83355 | 114.31089 | 20851 ft | 416 kts | 218° |
| 2026-04-30 09:24 | 21.81127 | 114.29062 | 21505 ft | 417 kts | 228° |
| 2026-04-30 09:24 | 21.79292 | 114.26669 | 22135 ft | 417 kts | 238° |
| 2026-04-30 09:24 | 21.77752 | 114.23998 | 22763 ft | 421 kts | 239° |
| 2026-04-30 09:25 | 21.76052 | 114.21383 | 23408 ft | 425 kts | 234° |
| 2026-04-30 09:25 | 21.74150 | 114.18938 | 23995 ft | 431 kts | 230° |
| 2026-04-30 09:25 | 21.72037 | 114.16557 | 24574 ft | 437 kts | 227° |
| 2026-04-30 09:25 | 21.69839 | 114.14292 | 25188 ft | 442 kts | 225° |
| 2026-04-30 09:26 | 21.67534 | 114.12055 | 25796 ft | 447 kts | 223° |
| 2026-04-30 09:26 | 21.65006 | 114.10043 | 26369 ft | 455 kts | 215° |
| 2026-04-30 09:26 | 21.62183 | 114.08443 | 26920 ft | 465 kts | 206° |
| 2026-04-30 09:26 | 21.59103 | 114.07315 | 27522 ft | 473 kts | 198° |
| 2026-04-30 09:27 | 21.55883 | 114.06477 | 28101 ft | 479 kts | 197° |
| 2026-04-30 09:27 | 21.52640 | 114.05666 | 28714 ft | 482 kts | 197° |
| 2026-04-30 09:27 | 21.49354 | 114.04839 | 29375 ft | 485 kts | 197° |
| 2026-04-30 09:27 | 21.46082 | 114.03934 | 30186 ft | 481 kts | 201° |
| 2026-04-30 09:28 | 21.43026 | 114.02593 | 31099 ft | 472 kts | 211° |
| 2026-04-30 09:28 | 21.40211 | 114.00816 | 32061 ft | 462 kts | 216° |
| 2026-04-30 09:28 | 21.37499 | 113.98926 | 32875 ft | 459 kts | 217° |
| 2026-04-30 09:28 | 21.34861 | 113.97072 | 33630 ft | 457 kts | 217° |
| 2026-04-30 09:29 | 21.32194 | 113.95194 | 34379 ft | 456 kts | 217° |
| 2026-04-30 09:29 | 21.29556 | 113.93335 | 35129 ft | 453 kts | 217° |
| 2026-04-30 09:29 | 21.26925 | 113.91481 | 35839 ft | 452 kts | 217° |
| 2026-04-30 09:29 | 21.24281 | 113.89616 | 35966 ft | 454 kts | 217° |
| 2026-04-30 09:30 | 21.19043 | 113.85925 | 35969 ft | 449 kts | 217° |
| 2026-04-30 09:30 | 21.13672 | 113.82127 | 35963 ft | 450 kts | 219° |
| 2026-04-30 09:31 | 21.09188 | 113.77431 | 35995 ft | 441 kts | 237° |
| 2026-04-30 09:31 | 21.06424 | 113.71659 | 36039 ft | 435 kts | 252° |
| 2026-04-30 09:32 | 21.04439 | 113.65582 | 36068 ft | 437 kts | 252° |
| 2026-04-30 09:32 | 21.02435 | 113.59406 | 36067 ft | 437 kts | 252° |
| 2026-04-30 09:33 | 21.00442 | 113.53268 | 36065 ft | 436 kts | 252° |
| 2026-04-30 09:33 | 20.98441 | 113.47111 | 36067 ft | 436 kts | 252° |
| 2026-04-30 09:34 | 20.96437 | 113.40952 | 36063 ft | 437 kts | 252° |
| 2026-04-30 09:34 | 20.94437 | 113.34815 | 36062 ft | 436 kts | 252° |
| 2026-04-30 09:35 | 20.92441 | 113.28698 | 36070 ft | 436 kts | 252° |
| 2026-04-30 09:35 | 20.90455 | 113.22622 | 36077 ft | 436 kts | 252° |
| 2026-04-30 09:36 | 20.88444 | 113.16473 | 36082 ft | 436 kts | 252° |
| 2026-04-30 09:36 | 20.86433 | 113.10337 | 36089 ft | 436 kts | 252° |
| 2026-04-30 09:37 | 20.84426 | 113.04219 | 36087 ft | 437 kts | 252° |
| 2026-04-30 09:37 | 20.82420 | 112.98111 | 36088 ft | 436 kts | 252° |
| 2026-04-30 09:38 | 20.80401 | 112.91972 | 36083 ft | 437 kts | 252° |
| 2026-04-30 09:38 | 20.78400 | 112.85899 | 36087 ft | 436 kts | 251° |
| 2026-04-30 09:39 | 20.76383 | 112.79784 | 36086 ft | 435 kts | 252° |
| 2026-04-30 09:39 | 20.74358 | 112.73653 | 36085 ft | 436 kts | 252° |
| 2026-04-30 09:40 | 20.72348 | 112.67572 | 36081 ft | 436 kts | 252° |
| 2026-04-30 09:40 | 20.70325 | 112.61466 | 36084 ft | 436 kts | 251° |
| 2026-04-30 09:41 | 20.68300 | 112.55357 | 36081 ft | 436 kts | 252° |
| 2026-04-30 09:41 | 20.66289 | 112.49302 | 36077 ft | 436 kts | 252° |
| 2026-04-30 09:42 | 20.64265 | 112.43211 | 36078 ft | 436 kts | 251° |
| 2026-04-30 09:42 | 20.62232 | 112.37106 | 36080 ft | 437 kts | 251° |
| 2026-04-30 09:43 | 20.60190 | 112.30981 | 36091 ft | 437 kts | 251° |
| 2026-04-30 09:43 | 20.58151 | 112.24871 | 36092 ft | 436 kts | 251° |
| 2026-04-30 09:44 | 20.56562 | 112.18700 | 36089 ft | 435 kts | 264° |
| 2026-04-30 09:44 | 20.56835 | 112.12273 | 36092 ft | 438 kts | 281° |
| 2026-04-30 09:45 | 20.58997 | 112.06197 | 36097 ft | 441 kts | 293° |
| 2026-04-30 09:45 | 20.61675 | 112.00326 | 36092 ft | 441 kts | 293° |
| 2026-04-30 09:46 | 20.64338 | 111.94462 | 36093 ft | 442 kts | 293° |
| 2026-04-30 09:46 | 20.67008 | 111.88561 | 36090 ft | 441 kts | 293° |
| 2026-04-30 09:47 | 20.69666 | 111.82668 | 36090 ft | 443 kts | 293° |
| 2026-04-30 09:47 | 20.72331 | 111.76751 | 36090 ft | 442 kts | 293° |
| 2026-04-30 09:48 | 20.74985 | 111.70849 | 36091 ft | 442 kts | 293° |
| 2026-04-30 09:48 | 20.77653 | 111.64907 | 36090 ft | 443 kts | 293° |
| 2026-04-30 09:49 | 20.80307 | 111.58990 | 36089 ft | 443 kts | 293° |
| 2026-04-30 09:49 | 20.82407 | 111.52844 | 36084 ft | 439 kts | 279° |
| 2026-04-30 09:50 | 20.82592 | 111.46399 | 36081 ft | 437 kts | 262° |
| 2026-04-30 09:50 | 20.80981 | 111.40165 | 36085 ft | 438 kts | 252° |
| 2026-04-30 09:51 | 20.78964 | 111.34062 | 36083 ft | 438 kts | 251° |
| 2026-04-30 09:51 | 20.76922 | 111.27940 | 36082 ft | 438 kts | 251° |
| 2026-04-30 09:52 | 20.74868 | 111.21809 | 36077 ft | 439 kts | 251° |
| 2026-04-30 09:52 | 20.72801 | 111.15660 | 36077 ft | 437 kts | 251° |
| 2026-04-30 09:53 | 20.70752 | 111.09579 | 36074 ft | 438 kts | 251° |
| 2026-04-30 09:53 | 20.68683 | 111.03449 | 36073 ft | 438 kts | 251° |
| 2026-04-30 09:54 | 20.66624 | 110.97356 | 36070 ft | 437 kts | 251° |
| 2026-04-30 09:54 | 20.64550 | 110.91228 | 36289 ft | 445 kts | 251° |
| 2026-04-30 09:55 | 20.63504 | 110.88125 | 36973 ft | 442 kts | 251° |
| 2026-04-30 09:55 | 20.62475 | 110.85056 | 37789 ft | 435 kts | 251° |
| 2026-04-30 09:55 | 20.61449 | 110.81998 | 38060 ft | 438 kts | 251° |
| 2026-04-30 09:55 | 20.60424 | 110.78944 | 38069 ft | 439 kts | 251° |
| 2026-04-30 09:56 | 20.58378 | 110.72858 | 38066 ft | 437 kts | 251° |
| 2026-04-30 09:56 | 20.56322 | 110.66750 | 38063 ft | 436 kts | 251° |
| 2026-04-30 09:57 | 20.54261 | 110.60636 | 38067 ft | 438 kts | 251° |
| 2026-04-30 09:57 | 20.52208 | 110.54554 | 38066 ft | 437 kts | 251° |
| 2026-04-30 09:58 | 20.49686 | 110.48654 | 38063 ft | 438 kts | 238° |
| 2026-04-30 09:58 | 20.45920 | 110.43500 | 38069 ft | 441 kts | 233° |
| 2026-04-30 09:59 | 20.38155 | 110.33331 | 38078 ft | 440 kts | 233° |
| 2026-04-30 10:00 | 20.32339 | 110.25729 | 38076 ft | 442 kts | 232° |
| 2026-04-30 10:01 | 20.26585 | 110.18124 | 38073 ft | 441 kts | 233° |
| 2026-04-30 10:02 | 20.20849 | 110.10459 | 38072 ft | 442 kts | 233° |
| 2026-04-30 10:02 | 20.17004 | 110.05333 | 38071 ft | 443 kts | 233° |
| 2026-04-30 10:03 | 20.13154 | 110.00204 | 38071 ft | 443 kts | 233° |
| 2026-04-30 10:03 | 20.09303 | 109.95081 | 38070 ft | 443 kts | 233° |
| 2026-04-30 10:04 | 20.05454 | 109.89965 | 38070 ft | 444 kts | 233° |
| 2026-04-30 10:04 | 20.01593 | 109.84837 | 38069 ft | 444 kts | 233° |
| 2026-04-30 10:05 | 19.97728 | 109.79709 | 38070 ft | 444 kts | 233° |
| 2026-04-30 10:05 | 19.93869 | 109.74593 | 38070 ft | 442 kts | 233° |
| 2026-04-30 10:06 | 19.90014 | 109.69486 | 38071 ft | 444 kts | 233° |
| 2026-04-30 10:06 | 19.86153 | 109.64378 | 38071 ft | 444 kts | 233° |
| 2026-04-30 10:07 | 19.82276 | 109.59251 | 38069 ft | 443 kts | 233° |
| 2026-04-30 10:07 | 19.78420 | 109.54157 | 38069 ft | 443 kts | 233° |
| 2026-04-30 10:08 | 19.74569 | 109.49074 | 38068 ft | 442 kts | 233° |
| 2026-04-30 10:08 | 19.70713 | 109.43988 | 38067 ft | 444 kts | 233° |
| 2026-04-30 10:09 | 19.66846 | 109.38892 | 38064 ft | 443 kts | 233° |
| 2026-04-30 10:09 | 19.62979 | 109.33802 | 38065 ft | 443 kts | 233° |
| 2026-04-30 10:10 | 19.59129 | 109.28737 | 38066 ft | 443 kts | 233° |
| 2026-04-30 10:10 | 19.55254 | 109.23644 | 38061 ft | 443 kts | 233° |
| 2026-04-30 10:11 | 19.51374 | 109.18550 | 38057 ft | 443 kts | 233° |
| 2026-04-30 10:11 | 19.47481 | 109.13496 | 38057 ft | 443 kts | 232° |
| 2026-04-30 10:12 | 19.43550 | 109.08401 | 38054 ft | 443 kts | 233° |
| 2026-04-30 10:12 | 19.39653 | 109.03352 | 38047 ft | 443 kts | 233° |
| 2026-04-30 10:13 | 19.35758 | 108.98311 | 38042 ft | 443 kts | 233° |
| 2026-04-30 10:13 | 19.31865 | 108.93274 | 38041 ft | 442 kts | 233° |
| 2026-04-30 10:14 | 19.27967 | 108.88235 | 38040 ft | 442 kts | 233° |
| 2026-04-30 10:14 | 19.22151 | 108.80724 | 38044 ft | 442 kts | 233° |
| 2026-04-30 10:15 | 19.18235 | 108.75669 | 38047 ft | 442 kts | 233° |
| 2026-04-30 10:15 | 19.14340 | 108.70647 | 38050 ft | 442 kts | 233° |
| 2026-04-30 10:16 | 19.10404 | 108.65577 | 38050 ft | 442 kts | 233° |
| 2026-04-30 10:17 | 19.04558 | 108.58053 | 38047 ft | 440 kts | 233° |
| 2026-04-30 10:17 | 18.98735 | 108.50568 | 38045 ft | 440 kts | 233° |
| 2026-04-30 10:18 | 18.94825 | 108.45547 | 38045 ft | 440 kts | 233° |
| 2026-04-30 10:19 | 18.88962 | 108.38026 | 38045 ft | 440 kts | 233° |
| 2026-04-30 10:19 | 18.85094 | 108.33068 | 38054 ft | 439 kts | 232° |
| 2026-04-30 10:20 | 18.81208 | 108.28092 | 38053 ft | 440 kts | 232° |
| 2026-04-30 10:20 | 18.75366 | 108.20619 | 38054 ft | 440 kts | 233° |
| 2026-04-30 10:21 | 18.71482 | 108.15655 | 38054 ft | 440 kts | 233° |
| 2026-04-30 10:21 | 18.67571 | 108.10662 | 38060 ft | 440 kts | 233° |
| 2026-04-30 10:22 | 18.63680 | 108.05697 | 38057 ft | 440 kts | 232° |
| 2026-04-30 10:22 | 18.59795 | 108.00744 | 38049 ft | 441 kts | 233° |
| 2026-04-30 10:23 | 18.55890 | 107.95769 | 38051 ft | 441 kts | 233° |
| 2026-04-30 10:23 | 18.51965 | 107.90773 | 38051 ft | 441 kts | 233° |
| 2026-04-30 10:24 | 18.48056 | 107.85801 | 38052 ft | 441 kts | 233° |
| 2026-04-30 10:24 | 18.44130 | 107.80811 | 38051 ft | 441 kts | 233° |
| 2026-04-30 10:25 | 18.40239 | 107.75871 | 38053 ft | 442 kts | 233° |
| 2026-04-30 10:25 | 18.36304 | 107.70878 | 38054 ft | 441 kts | 232° |
| 2026-04-30 10:26 | 18.32668 | 107.65717 | 38060 ft | 440 kts | 239° |
| 2026-04-30 10:26 | 18.29409 | 107.60310 | 38051 ft | 440 kts | 239° |
| 2026-04-30 10:27 | 18.26113 | 107.54846 | 38058 ft | 441 kts | 239° |
| 2026-04-30 10:27 | 18.22845 | 107.49438 | 38054 ft | 439 kts | 239° |
| 2026-04-30 10:28 | 18.19558 | 107.44007 | 38060 ft | 441 kts | 239° |
| 2026-04-30 10:28 | 18.16266 | 107.38573 | 38058 ft | 439 kts | 239° |
| 2026-04-30 10:29 | 18.12985 | 107.33164 | 38068 ft | 440 kts | 239° |
| 2026-04-30 10:29 | 18.09699 | 107.27750 | 38069 ft | 440 kts | 239° |
| 2026-04-30 10:30 | 18.06411 | 107.22337 | 38066 ft | 439 kts | 239° |
| 2026-04-30 10:30 | 18.03115 | 107.16926 | 38070 ft | 441 kts | 239° |
| 2026-04-30 10:31 | 17.99813 | 107.11507 | 38068 ft | 440 kts | 239° |
| 2026-04-30 10:31 | 17.96512 | 107.06096 | 38071 ft | 442 kts | 239° |
| 2026-04-30 10:32 | 17.93194 | 107.00662 | 38067 ft | 441 kts | 239° |
| 2026-04-30 10:32 | 17.89884 | 106.95244 | 38070 ft | 441 kts | 239° |
| 2026-04-30 10:33 | 17.86587 | 106.89838 | 38070 ft | 440 kts | 239° |
| 2026-04-30 10:33 | 17.83291 | 106.84410 | 38070 ft | 440 kts | 240° |
| 2026-04-30 10:34 | 17.80006 | 106.79007 | 38068 ft | 441 kts | 239° |
| 2026-04-30 10:34 | 17.76722 | 106.73611 | 38065 ft | 438 kts | 239° |
| 2026-04-30 10:35 | 17.73445 | 106.68230 | 38060 ft | 439 kts | 239° |
| 2026-04-30 10:35 | 17.70166 | 106.62851 | 38063 ft | 440 kts | 239° |
| 2026-04-30 10:36 | 17.66882 | 106.57472 | 38059 ft | 439 kts | 239° |
| 2026-04-30 10:36 | 17.63583 | 106.52091 | 38057 ft | 440 kts | 239° |
| 2026-04-30 10:37 | 17.60266 | 106.46685 | 38057 ft | 438 kts | 240° |
| 2026-04-30 10:37 | 17.56973 | 106.41320 | 38057 ft | 439 kts | 240° |
| 2026-04-30 10:38 | 17.53671 | 106.35946 | 38069 ft | 438 kts | 240° |
| 2026-04-30 10:38 | 17.50385 | 106.30602 | 38090 ft | 438 kts | 239° |
| 2026-04-30 10:39 | 17.47087 | 106.25242 | 38098 ft | 437 kts | 239° |
| 2026-04-30 10:39 | 17.43795 | 106.19895 | 38112 ft | 439 kts | 239° |
| 2026-04-30 10:40 | 17.40461 | 106.14485 | 38115 ft | 438 kts | 239° |
| 2026-04-30 10:40 | 17.37128 | 106.09082 | 38118 ft | 438 kts | 239° |
| 2026-04-30 10:41 | 17.33859 | 106.03710 | 38104 ft | 438 kts | 240° |
| 2026-04-30 10:41 | 17.30601 | 105.98322 | 38087 ft | 438 kts | 240° |
| 2026-04-30 10:42 | 17.27354 | 105.92958 | 38068 ft | 437 kts | 240° |
| 2026-04-30 10:42 | 17.24073 | 105.87545 | 38066 ft | 438 kts | 240° |
| 2026-04-30 10:43 | 17.20830 | 105.82201 | 38061 ft | 436 kts | 240° |
| 2026-04-30 10:43 | 17.17550 | 105.76801 | 38059 ft | 437 kts | 240° |
| 2026-04-30 10:44 | 17.14306 | 105.71463 | 38052 ft | 438 kts | 240° |
| 2026-04-30 10:44 | 17.11029 | 105.66076 | 38042 ft | 439 kts | 240° |
| 2026-04-30 10:45 | 17.07767 | 105.60719 | 38044 ft | 439 kts | 240° |
| 2026-04-30 10:45 | 17.04488 | 105.55337 | 38042 ft | 438 kts | 240° |
| 2026-04-30 10:46 | 17.01209 | 105.49959 | 38030 ft | 438 kts | 240° |
| 2026-04-30 10:46 | 16.97945 | 105.44610 | 38036 ft | 438 kts | 240° |
| 2026-04-30 10:47 | 16.94685 | 105.39271 | 38023 ft | 437 kts | 240° |
| 2026-04-30 10:47 | 16.91412 | 105.33916 | 38016 ft | 437 kts | 240° |
| 2026-04-30 10:48 | 16.88131 | 105.28552 | 38018 ft | 438 kts | 240° |
| 2026-04-30 10:48 | 16.84861 | 105.23210 | 38016 ft | 438 kts | 240° |
| 2026-04-30 10:49 | 16.81592 | 105.17883 | 38003 ft | 437 kts | 239° |
| 2026-04-30 10:49 | 16.78289 | 105.12507 | 37997 ft | 438 kts | 239° |
| 2026-04-30 10:50 | 16.74999 | 105.07153 | 37995 ft | 439 kts | 240° |
| 2026-04-30 10:50 | 16.71699 | 105.01788 | 37994 ft | 439 kts | 239° |
| 2026-04-30 10:51 | 16.68407 | 104.96439 | 38004 ft | 440 kts | 240° |
| 2026-04-30 10:51 | 16.65116 | 104.91098 | 37998 ft | 439 kts | 240° |
| 2026-04-30 10:52 | 16.61807 | 104.85730 | 38003 ft | 438 kts | 239° |
| 2026-04-30 10:52 | 16.58507 | 104.80381 | 38001 ft | 439 kts | 240° |
| 2026-04-30 10:53 | 16.54962 | 104.75213 | 38010 ft | 440 kts | 232° |
| 2026-04-30 10:53 | 16.50898 | 104.70464 | 38001 ft | 442 kts | 231° |
| 2026-04-30 10:54 | 16.46785 | 104.65681 | 38001 ft | 440 kts | 231° |
| 2026-04-30 10:54 | 16.42719 | 104.60953 | 37996 ft | 442 kts | 231° |
| 2026-04-30 10:55 | 16.38619 | 104.56188 | 37988 ft | 442 kts | 231° |
| 2026-04-30 10:55 | 16.34506 | 104.51410 | 37988 ft | 441 kts | 231° |
| 2026-04-30 10:56 | 16.30417 | 104.46664 | 37983 ft | 442 kts | 231° |
| 2026-04-30 10:56 | 16.26305 | 104.41895 | 37979 ft | 441 kts | 231° |
| 2026-04-30 10:57 | 16.22184 | 104.37180 | 37978 ft | 441 kts | 230° |
| 2026-04-30 10:57 | 16.18053 | 104.32462 | 37986 ft | 440 kts | 230° |
| 2026-04-30 10:58 | 16.13987 | 104.27821 | 37863 ft | 424 kts | 230° |
| 2026-04-30 10:58 | 16.09947 | 104.23208 | 37884 ft | 437 kts | 230° |
| 2026-04-30 10:59 | 16.05804 | 104.18481 | 37883 ft | 443 kts | 230° |
| 2026-04-30 10:59 | 16.01722 | 104.13737 | 37884 ft | 441 kts | 231° |
| 2026-04-30 11:00 | 15.97620 | 104.08943 | 37878 ft | 441 kts | 231° |
| 2026-04-30 11:00 | 15.93537 | 104.04180 | 37871 ft | 442 kts | 231° |
| 2026-04-30 11:01 | 15.89426 | 103.99390 | 37870 ft | 440 kts | 231° |
| 2026-04-30 11:01 | 15.85365 | 103.94663 | 37868 ft | 440 kts | 231° |
| 2026-04-30 11:02 | 15.81232 | 103.89854 | 37867 ft | 442 kts | 231° |
| 2026-04-30 11:02 | 15.77112 | 103.85065 | 37868 ft | 442 kts | 231° |
| 2026-04-30 11:03 | 15.73034 | 103.80328 | 37873 ft | 442 kts | 231° |
| 2026-04-30 11:04 | 15.66868 | 103.73171 | 37866 ft | 442 kts | 231° |
| 2026-04-30 11:04 | 15.62750 | 103.68395 | 37863 ft | 441 kts | 231° |
| 2026-04-30 11:05 | 15.58661 | 103.63657 | 37861 ft | 442 kts | 231° |
| 2026-04-30 11:05 | 15.54519 | 103.58858 | 37858 ft | 443 kts | 231° |
| 2026-04-30 11:06 | 15.50417 | 103.54112 | 37852 ft | 443 kts | 231° |
| 2026-04-30 11:06 | 15.46271 | 103.49316 | 37850 ft | 444 kts | 231° |
| 2026-04-30 11:07 | 15.42160 | 103.44564 | 37850 ft | 443 kts | 231° |
| 2026-04-30 11:07 | 15.38034 | 103.39797 | 37851 ft | 445 kts | 231° |
| 2026-04-30 11:08 | 15.33901 | 103.35027 | 37853 ft | 445 kts | 231° |
| 2026-04-30 11:08 | 15.29754 | 103.30241 | 37863 ft | 447 kts | 231° |
| 2026-04-30 11:09 | 15.25600 | 103.25452 | 37863 ft | 445 kts | 231° |
| 2026-04-30 11:09 | 15.21476 | 103.20701 | 37863 ft | 445 kts | 231° |
| 2026-04-30 11:10 | 15.17320 | 103.15915 | 37862 ft | 446 kts | 231° |
| 2026-04-30 11:10 | 15.13159 | 103.11126 | 37864 ft | 446 kts | 231° |
| 2026-04-30 11:11 | 15.08991 | 103.06332 | 37862 ft | 447 kts | 231° |
| 2026-04-30 11:11 | 15.04704 | 103.01656 | 37861 ft | 451 kts | 223° |
| 2026-04-30 11:12 | 14.99439 | 102.98043 | 37860 ft | 455 kts | 214° |
| 2026-04-30 11:12 | 14.93938 | 102.94664 | 37860 ft | 455 kts | 214° |
| 2026-04-30 11:13 | 14.88990 | 102.90711 | 37859 ft | 448 kts | 230° |
| 2026-04-30 11:13 | 14.85496 | 102.85442 | 37862 ft | 442 kts | 247° |
| 2026-04-30 11:14 | 14.83445 | 102.79491 | 37863 ft | 440 kts | 254° |
| 2026-04-30 11:14 | 14.81594 | 102.73473 | 37863 ft | 440 kts | 254° |
| 2026-04-30 11:15 | 14.79739 | 102.67442 | 37859 ft | 439 kts | 254° |
| 2026-04-30 11:15 | 14.77881 | 102.61398 | 37856 ft | 440 kts | 254° |
| 2026-04-30 11:16 | 14.76032 | 102.55391 | 37857 ft | 439 kts | 254° |
| 2026-04-30 11:16 | 14.74192 | 102.49418 | 37855 ft | 438 kts | 254° |
| 2026-04-30 11:17 | 14.72343 | 102.43423 | 37855 ft | 439 kts | 254° |
| 2026-04-30 11:17 | 14.70494 | 102.37432 | 37857 ft | 438 kts | 254° |
| 2026-04-30 11:18 | 14.68649 | 102.31460 | 37868 ft | 439 kts | 254° |
| 2026-04-30 11:18 | 14.66802 | 102.25487 | 37254 ft | 432 kts | 254° |
| 2026-04-30 11:18 | 14.65893 | 102.22549 | 36481 ft | 432 kts | 254° |
| 2026-04-30 11:19 | 14.64980 | 102.19600 | 35791 ft | 431 kts | 254° |
| 2026-04-30 11:19 | 14.64062 | 102.16639 | 35108 ft | 429 kts | 254° |
| 2026-04-30 11:19 | 14.63154 | 102.13708 | 34400 ft | 428 kts | 254° |
| 2026-04-30 11:19 | 14.62242 | 102.10766 | 33652 ft | 434 kts | 254° |
| 2026-04-30 11:20 | 14.61289 | 102.07685 | 32872 ft | 454 kts | 254° |
| 2026-04-30 11:20 | 14.60313 | 102.04539 | 32090 ft | 458 kts | 254° |
| 2026-04-30 11:20 | 14.59351 | 102.01444 | 31291 ft | 459 kts | 254° |
| 2026-04-30 11:20 | 14.58370 | 101.98288 | 30481 ft | 461 kts | 254° |
| 2026-04-30 11:21 | 14.57408 | 101.95194 | 29995 ft | 455 kts | 254° |
| 2026-04-30 11:21 | 14.56443 | 101.92095 | 29534 ft | 454 kts | 254° |
| 2026-04-30 11:21 | 14.55360 | 101.89024 | 29015 ft | 457 kts | 249° |
| 2026-04-30 11:21 | 14.54129 | 101.86012 | 28472 ft | 455 kts | 249° |
| 2026-04-30 11:22 | 14.52904 | 101.83027 | 27946 ft | 451 kts | 249° |
| 2026-04-30 11:22 | 14.51692 | 101.80056 | 27412 ft | 448 kts | 249° |
| 2026-04-30 11:22 | 14.50501 | 101.77123 | 26863 ft | 445 kts | 249° |
| 2026-04-30 11:22 | 14.49309 | 101.74179 | 26310 ft | 443 kts | 249° |
| 2026-04-30 11:23 | 14.48117 | 101.71225 | 25753 ft | 440 kts | 249° |
| 2026-04-30 11:23 | 14.46955 | 101.68342 | 25199 ft | 438 kts | 249° |
| 2026-04-30 11:23 | 14.44616 | 101.62531 | 24069 ft | 434 kts | 249° |
| 2026-04-30 11:24 | 14.43465 | 101.59669 | 23503 ft | 432 kts | 248° |
| 2026-04-30 11:24 | 14.42318 | 101.56818 | 22934 ft | 430 kts | 248° |
| 2026-04-30 11:24 | 14.41181 | 101.53990 | 22367 ft | 427 kts | 248° |
| 2026-04-30 11:25 | 14.38921 | 101.48373 | 21245 ft | 422 kts | 248° |
| 2026-04-30 11:25 | 14.37806 | 101.45602 | 20674 ft | 418 kts | 248° |
| 2026-04-30 11:25 | 14.35595 | 101.40109 | 19543 ft | 411 kts | 248° |
| 2026-04-30 11:26 | 14.33440 | 101.34760 | 18419 ft | 404 kts | 247° |
| 2026-04-30 11:26 | 14.32332 | 101.32018 | 17977 ft | 396 kts | 245° |
| 2026-04-30 11:26 | 14.31037 | 101.29588 | 17856 ft | 380 kts | 235° |
| 2026-04-30 11:27 | 14.29367 | 101.27534 | 17676 ft | 368 kts | 224° |
| 2026-04-30 11:27 | 14.27467 | 101.25784 | 17343 ft | 367 kts | 220° |
| 2026-04-30 11:27 | 14.25521 | 101.24071 | 16983 ft | 365 kts | 220° |
| 2026-04-30 11:27 | 14.23581 | 101.22386 | 16650 ft | 364 kts | 219° |
| 2026-04-30 11:28 | 14.19707 | 101.19052 | 16025 ft | 360 kts | 219° |
| 2026-04-30 11:28 | 14.17807 | 101.17426 | 15717 ft | 354 kts | 219° |
| 2026-04-30 11:28 | 14.15930 | 101.15824 | 15415 ft | 347 kts | 219° |
| 2026-04-30 11:29 | 14.14077 | 101.14245 | 15117 ft | 340 kts | 219° |
| 2026-04-30 11:29 | 14.12278 | 101.12712 | 14834 ft | 333 kts | 219° |
| 2026-04-30 11:29 | 14.08770 | 101.09729 | 14276 ft | 320 kts | 219° |
| 2026-04-30 11:30 | 14.05222 | 101.07169 | 13746 ft | 308 kts | 200° |
| 2026-04-30 11:30 | 14.03172 | 101.06488 | 13470 ft | 312 kts | 195° |
| 2026-04-30 11:30 | 14.01080 | 101.05904 | 13161 ft | 310 kts | 195° |
| 2026-04-30 11:31 | 13.98992 | 101.05336 | 12859 ft | 308 kts | 195° |
| 2026-04-30 11:31 | 13.96924 | 101.04771 | 12564 ft | 306 kts | 195° |
| 2026-04-30 11:31 | 13.94862 | 101.04206 | 12288 ft | 305 kts | 195° |
| 2026-04-30 11:31 | 13.92818 | 101.03645 | 12085 ft | 303 kts | 195° |
| 2026-04-30 11:32 | 13.90772 | 101.03084 | 11837 ft | 303 kts | 194° |
| 2026-04-30 11:32 | 13.88714 | 101.02519 | 11547 ft | 301 kts | 194° |
| 2026-04-30 11:32 | 13.86700 | 101.01966 | 11264 ft | 299 kts | 194° |
| 2026-04-30 11:33 | 13.82967 | 101.00221 | 10680 ft | 298 kts | 226° |
| 2026-04-30 11:33 | 13.81890 | 100.98431 | 10390 ft | 299 kts | 251° |
| 2026-04-30 11:33 | 13.81645 | 100.96336 | 10099 ft | 295 kts | 275° |
| 2026-04-30 11:33 | 13.81980 | 100.94254 | 9788 ft | 292 kts | 282° |
| 2026-04-30 11:34 | 13.82555 | 100.92261 | 9220 ft | 298 kts | 297° |
| 2026-04-30 11:34 | 13.83840 | 100.90614 | 8692 ft | 297 kts | 324° |
| 2026-04-30 11:34 | 13.85671 | 100.89709 | 8319 ft | 284 kts | 350° |
| 2026-04-30 11:34 | 13.87599 | 100.89668 | 8016 ft | 278 kts | 13° |
| 2026-04-30 11:35 | 13.89459 | 100.90204 | 7707 ft | 275 kts | 19° |
| 2026-04-30 11:35 | 13.91304 | 100.90780 | 7385 ft | 274 kts | 18° |
| 2026-04-30 11:35 | 13.93137 | 100.91312 | 7061 ft | 273 kts | 17° |
| 2026-04-30 11:35 | 13.94962 | 100.91821 | 6741 ft | 272 kts | 17° |
| 2026-04-30 11:36 | 13.96842 | 100.92136 | 6403 ft | 273 kts | 357° |
| 2026-04-30 11:36 | 13.98619 | 100.91557 | 6267 ft | 265 kts | 328° |
| 2026-04-30 11:36 | 13.99913 | 100.90243 | 5943 ft | 266 kts | 301° |
| 2026-04-30 11:36 | 14.00637 | 100.88496 | 5507 ft | 267 kts | 286° |
| 2026-04-30 11:37 | 14.00757 | 100.86627 | 5248 ft | 257 kts | 257° |
| 2026-04-30 11:37 | 14.00023 | 100.85044 | 5148 ft | 238 kts | 226° |
| 2026-04-30 11:37 | 13.98730 | 100.84069 | 4906 ft | 230 kts | 202° |
| 2026-04-30 11:37 | 13.97250 | 100.83493 | 4613 ft | 225 kts | 194° |
| 2026-04-30 11:38 | 13.95755 | 100.83061 | 4348 ft | 217 kts | 192° |
| 2026-04-30 11:38 | 13.94317 | 100.82666 | 4099 ft | 210 kts | 192° |
| 2026-04-30 11:38 | 13.92923 | 100.82295 | 3885 ft | 203 kts | 192° |
| 2026-04-30 11:38 | 13.91541 | 100.81937 | 3646 ft | 204 kts | 191° |
| 2026-04-30 11:39 | 13.90169 | 100.81582 | 3479 ft | 200 kts | 191° |
| 2026-04-30 11:39 | 13.88798 | 100.81228 | 3421 ft | 203 kts | 191° |
| 2026-04-30 11:39 | 13.87423 | 100.80872 | 3348 ft | 203 kts | 191° |
| 2026-04-30 11:39 | 13.86045 | 100.80513 | 3166 ft | 205 kts | 191° |
| 2026-04-30 11:40 | 13.84664 | 100.80152 | 2923 ft | 204 kts | 191° |
| 2026-04-30 11:40 | 13.83286 | 100.79791 | 2667 ft | 203 kts | 192° |
| 2026-04-30 11:40 | 13.81923 | 100.79434 | 2425 ft | 200 kts | 192° |
| 2026-04-30 11:40 | 13.80581 | 100.79082 | 2178 ft | 195 kts | 192° |
| 2026-04-30 11:41 | 13.79278 | 100.78742 | 1941 ft | 186 kts | 192° |
| 2026-04-30 11:41 | 13.78061 | 100.78423 | 1718 ft | 175 kts | 192° |
| 2026-04-30 11:41 | 13.76883 | 100.78116 | 1528 ft | 173 kts | 192° |
| 2026-04-30 11:41 | 13.75750 | 100.77818 | 1309 ft | 156 kts | 192° |
| 2026-04-30 11:42 | 13.74743 | 100.77555 | 1127 ft | 144 kts | 191° |
| 2026-04-30 11:42 | 13.73774 | 100.77303 | 900 ft | 140 kts | 192° |
| 2026-04-30 11:42 | 13.72837 | 100.77044 | 685 ft | 137 kts | 191° |
| 2026-04-30 11:42 | 13.71910 | 100.76805 | 554 ft | 138 kts | 192° |
| 2026-04-30 11:43 | 13.70968 | 100.76561 | 407 ft | 138 kts | 191° |
| 2026-04-30 11:43 | 13.70032 | 100.76311 | 246 ft | 139 kts | 191° |
| 2026-04-30 11:43 | 13.69074 | 100.76063 | 49 ft | 141 kts | 190° |
| 2026-04-30 11:43 | 13.68134 | 100.75824 | 64 ft | 133 kts | 192° |
| 2026-04-30 11:44 | 13.67226 | 100.75588 | 374 ft | 135 kts | 191° |
| 2026-04-30 11:44 | 13.66294 | 100.75347 | 936 ft | 141 kts | 191° |
| 2026-04-30 11:44 | 13.65323 | 100.75100 | 1611 ft | 154 kts | 187° |
| 2026-04-30 11:44 | 13.64254 | 100.75320 | 2369 ft | 171 kts | 142° |
| 2026-04-30 11:45 | 13.63603 | 100.76345 | 3324 ft | 186 kts | 108° |
| 2026-04-30 11:45 | 13.63270 | 100.77630 | 4349 ft | 200 kts | 105° |
| 2026-04-30 11:45 | 13.62902 | 100.79099 | 4909 ft | 225 kts | 104° |
| 2026-04-30 11:45 | 13.62639 | 100.80741 | 5064 ft | 251 kts | 86° |
| 2026-04-30 11:46 | 13.63193 | 100.82487 | 6195 ft | 264 kts | 66° |
| 2026-04-30 11:46 | 13.64058 | 100.84138 | 6819 ft | 262 kts | 62° |
| 2026-04-30 11:46 | 13.64990 | 100.85750 | 6949 ft | 261 kts | 60° |
| 2026-04-30 11:46 | 13.65919 | 100.87348 | 6976 ft | 259 kts | 61° |
| 2026-04-30 11:47 | 13.66836 | 100.88939 | 6987 ft | 260 kts | 61° |
| 2026-04-30 11:47 | 13.67763 | 100.90552 | 6985 ft | 259 kts | 61° |
| 2026-04-30 11:47 | 13.68679 | 100.92146 | 6987 ft | 259 kts | 61° |
| 2026-04-30 11:47 | 13.69591 | 100.93734 | 6991 ft | 260 kts | 61° |
| 2026-04-30 11:48 | 13.70513 | 100.95338 | 6995 ft | 259 kts | 61° |
| 2026-04-30 11:48 | 13.71466 | 100.96909 | 6988 ft | 260 kts | 52° |
| 2026-04-30 11:48 | 13.72859 | 100.98091 | 6973 ft | 264 kts | 27° |
| 2026-04-30 11:48 | 13.74595 | 100.98741 | 6981 ft | 266 kts | 18° |
| 2026-04-30 11:49 | 13.76384 | 100.99244 | 6923 ft | 267 kts | 17° |
| 2026-04-30 11:49 | 13.78203 | 100.99729 | 6696 ft | 267 kts | 16° |
| 2026-04-30 11:49 | 13.79995 | 101.00205 | 6395 ft | 265 kts | 17° |
| 2026-04-30 11:49 | 13.81772 | 101.00679 | 6086 ft | 264 kts | 17° |
| 2026-04-30 11:50 | 13.83585 | 101.01052 | 5764 ft | 266 kts | 2° |
| 2026-04-30 11:50 | 13.85387 | 101.00657 | 5439 ft | 269 kts | 334° |
| 2026-04-30 11:50 | 13.86817 | 100.99424 | 5114 ft | 270 kts | 305° |
| 2026-04-30 11:50 | 13.87484 | 100.97670 | 4975 ft | 266 kts | 275° |
| 2026-04-30 11:51 | 13.87471 | 100.95747 | 4973 ft | 269 kts | 264° |
| 2026-04-30 11:51 | 13.87255 | 100.93850 | 4973 ft | 268 kts | 261° |
| 2026-04-30 11:51 | 13.86996 | 100.91941 | 4920 ft | 264 kts | 261° |
| 2026-04-30 11:51 | 13.86747 | 100.90143 | 4447 ft | 265 kts | 261° |
| 2026-04-30 11:52 | 13.86489 | 100.88274 | 3975 ft | 263 kts | 261° |
| 2026-04-30 11:52 | 13.86235 | 100.86430 | 3546 ft | 259 kts | 261° |
| 2026-04-30 11:52 | 13.85989 | 100.84636 | 3312 ft | 247 kts | 260° |
| 2026-04-30 11:52 | 13.85755 | 100.82932 | 3218 ft | 230 kts | 259° |
| 2026-04-30 11:53 | 13.85282 | 100.81433 | 3173 ft | 216 kts | 236° |
| 2026-04-30 11:53 | 13.84264 | 100.80360 | 3075 ft | 208 kts | 208° |
| 2026-04-30 11:53 | 13.82955 | 100.79760 | 2802 ft | 203 kts | 195° |
| 2026-04-30 11:53 | 13.81624 | 100.79353 | 2531 ft | 194 kts | 192° |
| 2026-04-30 11:54 | 13.80347 | 100.79018 | 2278 ft | 183 kts | 191° |
| 2026-04-30 11:54 | 13.79179 | 100.78716 | 2048 ft | 169 kts | 192° |
| 2026-04-30 11:54 | 13.78061 | 100.78423 | 1824 ft | 162 kts | 192° |
| 2026-04-30 11:54 | 13.76974 | 100.78139 | 1613 ft | 156 kts | 192° |
| 2026-04-30 11:55 | 13.75933 | 100.77868 | 1412 ft | 152 kts | 192° |
| 2026-04-30 11:55 | 13.74911 | 100.77602 | 1127 ft | 149 kts | 192° |
| 2026-04-30 11:55 | 13.73907 | 100.77341 | 954 ft | 147 kts | 192° |
| 2026-04-30 11:55 | 13.72916 | 100.77073 | 761 ft | 147 kts | 192° |
| 2026-04-30 11:56 | 13.71906 | 100.76818 | 566 ft | 147 kts | 192° |
| 2026-04-30 11:56 | 13.70910 | 100.76552 | 373 ft | 149 kts | 193° |
| 2026-04-30 11:56 | 13.69886 | 100.76285 | 206 ft | 151 kts | 191° |
| 2026-04-30 11:56 | 13.68863 | 100.76021 | 28 ft | 149 kts | 192° |
| 2026-04-30 11:57 | 13.67965 | 100.75787 | 19 ft | 115 kts | 195° |
| 2026-04-30 11:57 | 13.67307 | 100.75613 | 18 ft | 79 kts | 194° |
| 2026-04-30 11:57 | 13.66901 | 100.75504 | 20 ft | 38 kts | 201° |
| 2026-04-30 11:57 | 13.66744 | 100.75417 | 21 ft | 15 kts | 217° |
| 2026-04-30 11:58 | 13.66675 | 100.75352 | 20 ft | 12 kts | 225° |
| 2026-04-30 11:58 | 13.66657 | 100.75284 | 19 ft | 8 kts | 299° |
| 2026-04-30 11:58 | 13.66721 | 100.75267 | 20 ft | 12 kts | 6° |
| 2026-04-30 11:58 | 13.66825 | 100.75294 | 21 ft | 17 kts | 15° |
| 2026-04-30 11:59 | 13.66956 | 100.75330 | 21 ft | 19 kts | 14° |
| 2026-04-30 11:59 | 13.67086 | 100.75363 | 20 ft | 18 kts | 14° |
| 2026-04-30 11:59 | 13.67205 | 100.75394 | 20 ft | 17 kts | 14° |
| 2026-04-30 11:59 | 13.67324 | 100.75425 | 19 ft | 16 kts | 14° |
| 2026-04-30 12:00 | 13.67433 | 100.75455 | 19 ft | 15 kts | 15° |
| 2026-04-30 12:00 | 13.67537 | 100.75483 | 19 ft | 15 kts | 15° |
| 2026-04-30 12:00 | 13.67637 | 100.75509 | 19 ft | 14 kts | 14° |
| 2026-04-30 12:00 | 13.67745 | 100.75537 | 18 ft | 17 kts | 14° |
| 2026-04-30 12:01 | 13.67872 | 100.75571 | 18 ft | 19 kts | 15° |
| 2026-04-30 12:01 | 13.68005 | 100.75604 | 19 ft | 19 kts | 13° |
| 2026-04-30 12:01 | 13.68129 | 100.75635 | 19 ft | 17 kts | 14° |
| 2026-04-30 12:01 | 13.68235 | 100.75662 | 20 ft | 11 kts | 14° |
| 2026-04-30 12:02 | 13.68307 | 100.75654 | 21 ft | 10 kts | 316° |
| 2026-04-30 12:02 | 13.68331 | 100.75588 | 22 ft | 11 kts | 284° |
| 2026-04-30 12:02 | 13.68356 | 100.75483 | 24 ft | 17 kts | 284° |
| 2026-04-30 12:02 | 13.68392 | 100.75341 | 25 ft | 21 kts | 284° |
| 2026-04-30 12:03 | 13.68430 | 100.75189 | 21 ft | 22 kts | 284° |
| 2026-04-30 12:03 | 13.68504 | 100.74894 | 21 ft | 19 kts | 284° |
| 2026-04-30 12:03 | 13.68536 | 100.74766 | 22 ft | 17 kts | 285° |
| 2026-04-30 12:04 | 13.68568 | 100.74643 | 23 ft | 18 kts | 285° |
| 2026-04-30 12:04 | 13.68601 | 100.74517 | 24 ft | 18 kts | 284° |
| 2026-04-30 12:04 | 13.68631 | 100.74392 | 23 ft | 17 kts | 284° |
| 2026-04-30 12:04 | 13.68661 | 100.74271 | 22 ft | 17 kts | 284° |
| 2026-04-30 12:05 | 13.68686 | 100.74190 | 21 ft | 9 kts | 307° |
| 2026-04-30 12:05 | 13.68742 | 100.74181 | 22 ft | 8 kts | 14° |
| 2026-04-30 12:05 | 13.68815 | 100.74200 | 23 ft | 13 kts | 15° |
| 2026-04-30 12:05 | 13.68935 | 100.74233 | 23 ft | 22 kts | 14° |
| 2026-04-30 12:06 | 13.69086 | 100.74272 | 22 ft | 21 kts | 14° |
| 2026-04-30 12:06 | 13.69225 | 100.74309 | 23 ft | 19 kts | 14° |
| 2026-04-30 12:06 | 13.69353 | 100.74342 | 24 ft | 17 kts | 15° |
| 2026-04-30 12:06 | 13.69501 | 100.74381 | 25 ft | 25 kts | 14° |
| 2026-04-30 12:07 | 13.69669 | 100.74425 | 22 ft | 25 kts | 15° |
| 2026-04-30 12:07 | 13.69842 | 100.74472 | 17 ft | 25 kts | 14° |
| 2026-04-30 12:07 | 13.70010 | 100.74514 | 20 ft | 22 kts | 14° |
| 2026-04-30 12:07 | 13.70153 | 100.74552 | 23 ft | 19 kts | 15° |
| 2026-04-30 12:08 | 13.70219 | 100.74571 | 22 ft | 5 kts | 22° |
| 2026-04-30 12:08 | 13.70235 | 100.74604 | 22 ft | 5 kts | 85° |
| 2026-04-30 12:08 | 13.70229 | 100.74644 | 21 ft | 5 kts | 102° |
| 2026-04-30 12:08 | 13.70224 | 100.74669 | 21 ft | 0 kts | 104° |